Time;durP1;ratioP1;P1;durP2;ratioP2;P2;SDS_P1;SDS_P2;PMS_P1;PMS_P2;Temp;Humidity;BMP_temperature;BMP_pressure;BME280_temperature;BME280_humidity;BME280_pressure;Samples;Min_cycle;Max_cycle;Signal;HPM_P1;HPM_P2
2020/12/16 00:00:21;;;;;;;11.23;6.97;;;9.30;99.90;;;;;;493869;241;27976;-77
2020/12/16 00:02:23;;;;;;;8.07;6.10;;;9.30;99.90;;;;;;493358;241;27955;-76
2020/12/16 00:04:24;;;;;;;8.87;6.60;;;9.30;99.90;;;;;;493815;239;28205;-76
2020/12/16 00:06:25;;;;;;;7.67;6.60;;;9.20;99.90;;;;;;493761;239;27975;-78
2020/12/16 00:08:26;;;;;;;9.20;6.70;;;9.10;99.90;;;;;;493694;241;28515;-76
2020/12/16 00:10:28;;;;;;;7.57;6.30;;;9.10;99.90;;;;;;493726;241;27998;-76
2020/12/16 00:12:29;;;;;;;7.27;6.47;;;9.20;99.90;;;;;;493793;241;27972;-76
2020/12/16 00:14:30;;;;;;;8.23;5.83;;;9.20;99.90;;;;;;493876;241;28013;-76
2020/12/16 00:16:31;;;;;;;7.00;6.30;;;9.20;99.90;;;;;;493807;237;27847;-76
2020/12/16 00:18:33;;;;;;;9.40;6.80;;;9.20;99.90;;;;;;493819;241;27829;-76
2020/12/16 00:20:34;;;;;;;7.97;6.17;;;9.30;99.90;;;;;;493924;241;28154;-76
2020/12/16 00:22:35;;;;;;;9.20;6.40;;;9.20;99.90;;;;;;494031;237;28550;-79
2020/12/16 00:24:36;;;;;;;10.60;6.80;;;9.30;99.90;;;;;;493603;241;28924;-77
2020/12/16 00:26:38;;;;;;;8.50;6.43;;;9.30;99.90;;;;;;493990;241;28482;-77
2020/12/16 00:28:39;;;;;;;7.17;6.30;;;9.30;99.90;;;;;;493991;241;27936;-73
2020/12/16 00:30:40;;;;;;;7.23;5.90;;;9.20;99.90;;;;;;493829;241;27748;-76
2020/12/16 00:32:41;;;;;;;7.67;5.50;;;9.20;99.90;;;;;;493911;241;27690;-77
2020/12/16 00:34:43;;;;;;;6.13;5.53;;;9.20;99.90;;;;;;493867;241;27577;-77
2020/12/16 00:36:44;;;;;;;7.40;5.40;;;9.10;99.90;;;;;;493745;241;27960;-77
2020/12/16 00:38:45;;;;;;;9.13;6.17;;;9.10;99.90;;;;;;493857;241;28014;-76
2020/12/16 00:40:46;;;;;;;6.43;5.50;;;9.10;99.90;;;;;;493774;241;27634;-76
2020/12/16 00:42:48;;;;;;;6.03;5.30;;;9.20;99.90;;;;;;493806;237;27605;-77
2020/12/16 00:44:49;;;;;;;6.60;5.30;;;9.10;99.90;;;;;;493737;241;27858;-76
2020/12/16 00:46:50;;;;;;;5.00;4.50;;;9.10;99.90;;;;;;493806;241;27964;-77
2020/12/16 00:48:51;;;;;;;4.93;4.33;;;9.00;99.90;;;;;;493823;241;27592;-76
2020/12/16 00:50:53;;;;;;;6.90;4.93;;;9.00;99.90;;;;;;493736;241;28017;-77
2020/12/16 00:52:54;;;;;;;5.70;4.87;;;9.00;99.90;;;;;;493822;241;27740;-76
2020/12/16 00:54:55;;;;;;;8.20;5.57;;;9.00;99.90;;;;;;493812;241;27973;-77
2020/12/16 00:56:56;;;;;;;5.70;4.93;;;9.00;99.90;;;;;;493785;241;27641;-76
2020/12/16 00:58:58;;;;;;;7.60;5.50;;;9.00;99.90;;;;;;493842;237;28520;-77
2020/12/16 01:00:59;;;;;;;7.57;5.20;;;9.00;99.90;;;;;;493732;241;28455;-77
2020/12/16 01:03:00;;;;;;;5.73;4.80;;;8.90;99.90;;;;;;493766;241;28441;-77
2020/12/16 01:05:01;;;;;;;6.13;5.53;;;8.90;99.90;;;;;;493747;241;28343;-74
2020/12/16 01:07:03;;;;;;;9.87;4.93;;;8.90;99.90;;;;;;493817;241;28481;-77
2020/12/16 01:09:04;;;;;;;6.20;5.03;;;8.90;99.90;;;;;;493917;241;27637;-78
2020/12/16 01:11:05;;;;;;;9.17;5.43;;;8.90;99.90;;;;;;493866;241;27930;-76
2020/12/16 01:13:06;;;;;;;11.10;5.23;;;8.90;99.90;;;;;;493794;241;27944;-76
2020/12/16 01:15:08;;;;;;;23.27;6.20;;;8.90;99.90;;;;;;493775;241;27878;-77
2020/12/16 01:17:09;;;;;;;16.30;5.43;;;8.90;99.90;;;;;;493803;241;27631;-76
2020/12/16 01:19:10;;;;;;;7.30;5.57;;;8.80;99.90;;;;;;493797;241;28158;-77
2020/12/16 01:21:11;;;;;;;6.40;4.70;;;8.80;99.90;;;;;;493770;237;28011;-76
2020/12/16 01:23:13;;;;;;;9.87;5.97;;;8.90;99.90;;;;;;493778;241;28019;-77
2020/12/16 01:25:14;;;;;;;8.60;5.53;;;8.80;99.90;;;;;;493828;241;27863;-78
2020/12/16 01:27:15;;;;;;;9.10;5.97;;;8.80;99.90;;;;;;493838;241;27829;-75
2020/12/16 01:29:16;;;;;;;13.10;5.70;;;8.80;99.90;;;;;;493858;241;27753;-77
2020/12/16 01:31:18;;;;;;;12.90;6.50;;;8.90;99.90;;;;;;493834;239;28404;-76
2020/12/16 01:33:19;;;;;;;10.93;6.77;;;8.90;99.90;;;;;;493949;239;27984;-76
2020/12/16 01:35:20;;;;;;;10.40;6.10;;;8.80;99.90;;;;;;494014;241;28516;-77
2020/12/16 01:37:21;;;;;;;17.83;6.60;;;8.90;99.90;;;;;;493953;241;28051;-77
2020/12/16 01:39:23;;;;;;;13.17;5.67;;;8.90;99.90;;;;;;493885;241;27705;-77
2020/12/16 01:41:24;;;;;;;16.67;6.77;;;8.80;99.90;;;;;;493485;237;27968;-76
2020/12/16 01:43:25;;;;;;;8.57;5.87;;;8.70;99.90;;;;;;493683;241;27842;-77
2020/12/16 01:45:26;;;;;;;8.97;5.60;;;8.70;99.90;;;;;;493949;241;27923;-78
2020/12/16 01:47:28;;;;;;;10.70;5.73;;;8.80;99.90;;;;;;493984;241;28052;-76
2020/12/16 01:49:29;;;;;;;15.87;6.83;;;8.80;99.90;;;;;;493976;241;27967;-77
2020/12/16 01:51:30;;;;;;;32.67;7.67;;;8.80;99.90;;;;;;493900;241;27939;-77
2020/12/16 01:53:31;;;;;;;10.73;6.10;;;8.80;99.90;;;;;;493963;241;27709;-76
2020/12/16 01:55:33;;;;;;;10.43;5.80;;;8.80;99.90;;;;;;493988;237;27945;-76
2020/12/16 01:57:34;;;;;;;10.77;5.10;;;8.80;99.90;;;;;;493596;237;28202;-76
2020/12/16 01:59:35;;;;;;;12.13;6.10;;;8.80;99.90;;;;;;493872;241;28213;-77
2020/12/16 02:01:36;;;;;;;63.57;8.73;;;8.80;99.90;;;;;;493621;241;28682;-77
2020/12/16 02:03:38;;;;;;;16.53;5.70;;;8.80;99.90;;;;;;493818;241;28610;-76
2020/12/16 02:05:41;;;;;;;28.17;6.70;;;8.70;99.90;;;;;;493528;241;27865;-77
2020/12/16 02:07:40;;;;;;;26.53;5.17;;;8.60;99.90;;;;;;493436;241;28009;-77
2020/12/16 02:09:41;;;;;;;8.70;4.77;;;8.40;99.90;;;;;;493740;241;27502;-76
2020/12/16 02:11:43;;;;;;;4.83;3.77;;;8.30;99.90;;;;;;493696;241;28059;-77
2020/12/16 02:13:44;;;;;;;4.90;3.60;;;8.30;99.90;;;;;;493787;241;27738;-76
2020/12/16 02:15:45;;;;;;;5.30;3.50;;;8.40;99.90;;;;;;493764;241;28106;-76
2020/12/16 02:17:46;;;;;;;6.50;4.10;;;8.30;99.90;;;;;;493760;241;28075;-77
2020/12/16 02:19:48;;;;;;;7.40;4.10;;;8.30;99.90;;;;;;493751;241;28043;-76
2020/12/16 02:21:49;;;;;;;5.07;3.40;;;8.30;99.90;;;;;;493698;241;28009;-76
2020/12/16 02:23:50;;;;;;;4.60;3.20;;;8.50;99.90;;;;;;493749;241;28103;-77
2020/12/16 02:25:51;;;;;;;3.80;3.07;;;8.50;99.90;;;;;;493777;241;27735;-76
2020/12/16 02:27:53;;;;;;;4.30;3.43;;;8.60;99.90;;;;;;493747;241;27963;-76
2020/12/16 02:29:54;;;;;;;4.30;3.33;;;8.60;99.90;;;;;;493797;239;28503;-76
2020/12/16 02:31:55;;;;;;;3.00;2.70;;;8.60;99.90;;;;;;493801;241;28488;-76
2020/12/16 02:33:56;;;;;;;2.87;2.60;;;8.60;99.90;;;;;;493931;241;28586;-77
2020/12/16 02:35:58;;;;;;;5.10;3.87;;;8.60;99.90;;;;;;493957;241;28381;-76
2020/12/16 02:37:59;;;;;;;5.50;3.90;;;8.70;99.90;;;;;;493868;241;28072;-76
2020/12/16 02:40:00;;;;;;;6.23;4.50;;;8.70;99.90;;;;;;493794;241;27951;-76
2020/12/16 02:42:01;;;;;;;8.73;4.87;;;8.70;99.90;;;;;;493705;241;27946;-75
2020/12/16 02:44:03;;;;;;;5.30;4.20;;;8.70;99.90;;;;;;493780;241;28088;-78
2020/12/16 02:46:04;;;;;;;5.13;3.53;;;8.70;99.90;;;;;;493770;241;28015;-76
2020/12/16 02:48:05;;;;;;;4.50;3.10;;;8.70;99.90;;;;;;493838;241;27996;-77
2020/12/16 02:50:06;;;;;;;5.33;3.77;;;8.70;99.90;;;;;;493804;241;27698;-75
2020/12/16 02:52:08;;;;;;;3.07;2.70;;;8.60;99.90;;;;;;493885;239;28148;-76
2020/12/16 02:54:09;;;;;;;3.53;2.93;;;8.50;99.90;;;;;;493868;241;28687;-76
2020/12/16 02:56:10;;;;;;;3.00;2.70;;;8.50;99.90;;;;;;493896;241;27945;-76
2020/12/16 02:58:11;;;;;;;3.10;2.70;;;8.50;99.90;;;;;;493976;241;27932;-77
2020/12/16 03:00:13;;;;;;;6.43;3.17;;;8.50;99.90;;;;;;493907;241;27588;-76
2020/12/16 03:02:14;;;;;;;3.73;2.97;;;8.50;99.90;;;;;;493946;237;27967;-76
2020/12/16 03:04:15;;;;;;;3.93;3.30;;;8.50;99.90;;;;;;493969;241;27936;-76
2020/12/16 03:06:16;;;;;;;5.47;3.40;;;8.60;99.90;;;;;;493969;241;27919;-76
2020/12/16 03:08:19;;;;;;;5.63;3.97;;;8.60;99.90;;;;;;493974;241;28521;-76
2020/12/16 03:10:19;;;;;;;4.73;3.40;;;8.60;99.90;;;;;;493828;241;28548;-75
2020/12/16 03:12:20;;;;;;;5.70;3.77;;;8.50;99.90;;;;;;493955;241;28515;-75
2020/12/16 03:14:21;;;;;;;6.37;4.00;;;8.40;99.90;;;;;;493943;241;28409;-78
2020/12/16 03:16:23;;;;;;;6.03;3.90;;;8.30;99.90;;;;;;493869;241;28424;-76
2020/12/16 03:18:24;;;;;;;4.53;3.40;;;8.30;99.90;;;;;;493327;241;27537;-76
2020/12/16 03:20:25;;;;;;;4.50;3.60;;;8.30;99.90;;;;;;493130;241;28107;-76
2020/12/16 03:22:26;;;;;;;4.73;3.80;;;8.40;99.90;;;;;;493786;241;27995;-76
2020/12/16 03:24:28;;;;;;;5.93;4.17;;;8.50;99.90;;;;;;493658;241;28118;-76
2020/12/16 03:26:29;;;;;;;5.03;4.30;;;8.50;99.90;;;;;;493897;241;27614;-76
2020/12/16 03:28:30;;;;;;;5.17;3.80;;;8.60;99.90;;;;;;493846;241;27966;-76
2020/12/16 03:30:31;;;;;;;3.90;3.07;;;8.60;99.90;;;;;;493802;237;27794;-76
2020/12/16 03:32:33;;;;;;;4.47;3.37;;;8.60;99.90;;;;;;493666;241;28030;-75
2020/12/16 03:34:34;;;;;;;4.17;3.30;;;8.70;99.90;;;;;;493729;237;28086;-76
2020/12/16 03:36:35;;;;;;;4.53;3.43;;;8.70;99.90;;;;;;493723;239;27966;-76
2020/12/16 03:38:36;;;;;;;3.40;3.10;;;8.70;99.90;;;;;;493788;241;27988;-76
2020/12/16 03:40:38;;;;;;;3.80;3.20;;;8.70;99.90;;;;;;493701;241;27925;-76
2020/12/16 03:42:40;;;;;;;3.03;2.73;;;8.70;99.90;;;;;;493994;241;28254;-76
2020/12/16 03:44:40;;;;;;;4.47;2.83;;;8.70;99.90;;;;;;494255;241;27898;-76
2020/12/16 03:46:41;;;;;;;3.40;3.00;;;8.70;99.90;;;;;;494099;241;28333;-76
2020/12/16 03:48:43;;;;;;;3.87;3.47;;;8.70;99.90;;;;;;493857;241;29340;-76
2020/12/16 03:50:44;;;;;;;4.00;3.00;;;8.70;99.90;;;;;;493772;241;28461;-77
2020/12/16 03:52:45;;;;;;;4.20;3.20;;;8.70;99.90;;;;;;493791;241;28587;-76
2020/12/16 03:54:46;;;;;;;3.47;2.97;;;8.70;99.90;;;;;;493759;241;28499;-76
2020/12/16 03:56:48;;;;;;;3.30;2.83;;;8.70;99.90;;;;;;493764;241;27974;-76
2020/12/16 03:58:49;;;;;;;3.23;2.93;;;8.70;99.90;;;;;;493788;241;27964;-75
2020/12/16 04:00:50;;;;;;;3.30;3.00;;;8.80;99.90;;;;;;493879;241;28001;-76
2020/12/16 04:02:51;;;;;;;3.23;2.93;;;8.70;99.90;;;;;;493965;241;27838;-76
2020/12/16 04:04:53;;;;;;;5.90;3.03;;;8.80;99.90;;;;;;493603;241;27579;-76
2020/12/16 04:06:54;;;;;;;3.50;3.07;;;8.70;99.90;;;;;;493863;241;27494;-76
2020/12/16 04:08:55;;;;;;;2.50;2.30;;;8.70;99.90;;;;;;493646;239;27642;-76
2020/12/16 04:10:57;;;;;;;3.50;2.77;;;8.80;99.90;;;;;;493740;239;28063;-76
2020/12/16 04:12:58;;;;;;;4.10;3.00;;;8.70;99.90;;;;;;493765;241;28050;-76
2020/12/16 04:14:59;;;;;;;3.40;2.70;;;8.70;99.90;;;;;;493775;241;27987;-76
2020/12/16 04:17:00;;;;;;;3.10;2.80;;;8.70;99.90;;;;;;493810;241;28010;-76
2020/12/16 04:19:02;;;;;;;4.30;3.20;;;8.70;99.90;;;;;;493827;241;28025;-75
2020/12/16 04:21:03;;;;;;;6.70;2.97;;;8.70;99.90;;;;;;493927;241;27972;-76
2020/12/16 04:23:04;;;;;;;4.30;3.23;;;8.80;99.90;;;;;;493992;241;27784;-76
2020/12/16 04:25:05;;;;;;;3.37;2.40;;;8.70;99.90;;;;;;493983;241;27973;-76
2020/12/16 04:27:07;;;;;;;3.63;3.33;;;8.70;99.90;;;;;;493974;241;28046;-76
2020/12/16 04:29:08;;;;;;;4.17;2.93;;;8.70;99.90;;;;;;493970;239;27940;-76
2020/12/16 04:31:09;;;;;;;3.37;3.07;;;8.70;99.90;;;;;;493951;241;28018;-76
2020/12/16 04:33:10;;;;;;;3.27;2.63;;;8.70;99.90;;;;;;494015;241;29615;-76
2020/12/16 04:35:12;;;;;;;3.23;2.90;;;8.70;99.90;;;;;;494041;241;27927;-76
2020/12/16 04:37:13;;;;;;;3.00;2.70;;;8.70;99.90;;;;;;494014;241;28338;-77
2020/12/16 04:39:14;;;;;;;3.30;2.70;;;8.60;99.90;;;;;;493991;241;28157;-76
2020/12/16 04:41:15;;;;;;;3.10;2.80;;;8.60;99.90;;;;;;493563;241;28580;-76
2020/12/16 04:43:17;;;;;;;4.13;3.17;;;8.60;99.90;;;;;;493981;241;27949;-76
2020/12/16 04:45:18;;;;;;;3.37;3.00;;;8.60;99.90;;;;;;493936;241;28007;-76
2020/12/16 04:47:19;;;;;;;3.17;2.60;;;8.70;99.90;;;;;;493929;241;28010;-76
2020/12/16 04:49:20;;;;;;;2.90;2.50;;;8.70;99.90;;;;;;493900;241;28036;-76
2020/12/16 04:51:22;;;;;;;2.40;2.20;;;8.60;99.90;;;;;;493836;241;28064;-76
2020/12/16 04:53:24;;;;;;;3.07;2.70;;;8.70;99.90;;;;;;493809;241;27755;-77
2020/12/16 04:55:24;;;;;;;4.10;2.83;;;8.60;99.90;;;;;;493763;241;27985;-76
2020/12/16 04:57:25;;;;;;;3.30;2.50;;;8.60;99.90;;;;;;493876;241;28041;-76
2020/12/16 04:59:26;;;;;;;4.00;3.17;;;8.70;99.90;;;;;;493831;237;27932;-76
2020/12/16 05:01:28;;;;;;;4.00;3.30;;;8.60;99.90;;;;;;493589;241;28016;-77
2020/12/16 05:03:29;;;;;;;5.00;3.40;;;8.60;99.90;;;;;;493734;241;27883;-77
2020/12/16 05:05:32;;;;;;;3.30;2.77;;;8.60;99.90;;;;;;493698;239;27980;-76
2020/12/16 05:07:31;;;;;;;2.90;2.30;;;8.60;99.90;;;;;;493573;241;27746;-76
2020/12/16 05:09:33;;;;;;;2.97;2.70;;;8.60;99.90;;;;;;493710;237;29110;-75
2020/12/16 05:11:34;;;;;;;2.40;2.20;;;8.70;99.90;;;;;;493687;241;28588;-76
2020/12/16 05:13:35;;;;;;;3.13;2.83;;;8.60;99.90;;;;;;493698;241;28456;-76
2020/12/16 05:15:36;;;;;;;3.63;2.53;;;8.60;99.90;;;;;;493730;239;28559;-76
2020/12/16 05:17:38;;;;;;;2.80;2.57;;;8.60;99.90;;;;;;493674;241;28301;-76
2020/12/16 05:19:39;;;;;;;3.17;2.47;;;8.60;99.90;;;;;;493740;241;28469;-76
2020/12/16 05:21:40;;;;;;;2.53;2.33;;;8.60;99.90;;;;;;493765;241;27993;-75
2020/12/16 05:23:41;;;;;;;2.40;2.20;;;8.50;99.90;;;;;;493796;241;28082;-76
2020/12/16 05:25:43;;;;;;;3.20;2.90;;;8.50;99.90;;;;;;493816;241;27759;-76
2020/12/16 05:27:44;;;;;;;3.37;3.03;;;8.50;99.90;;;;;;493848;241;27821;-76
2020/12/16 05:29:45;;;;;;;4.30;3.60;;;8.40;99.90;;;;;;493939;241;27946;-77
2020/12/16 05:31:46;;;;;;;3.73;3.33;;;8.30;99.90;;;;;;493753;241;28006;-76
2020/12/16 05:33:48;;;;;;;3.83;3.07;;;8.20;99.90;;;;;;493832;241;27992;-76
2020/12/16 05:35:49;;;;;;;3.40;3.07;;;8.10;99.90;;;;;;493801;237;28033;-76
2020/12/16 05:37:50;;;;;;;3.60;3.20;;;8.10;99.90;;;;;;493833;241;27836;-76
2020/12/16 05:39:51;;;;;;;2.97;2.67;;;8.20;99.90;;;;;;493919;241;27994;-77
2020/12/16 05:41:53;;;;;;;2.87;2.67;;;8.20;99.90;;;;;;493926;241;27846;-75
2020/12/16 05:43:54;;;;;;;2.73;2.50;;;8.20;99.90;;;;;;493970;241;27933;-76
2020/12/16 05:45:55;;;;;;;2.80;2.50;;;8.30;99.90;;;;;;493979;237;27687;-76
2020/12/16 05:47:56;;;;;;;3.03;2.70;;;8.30;99.90;;;;;;493987;241;28101;-76
2020/12/16 05:49:58;;;;;;;3.37;2.37;;;8.30;99.90;;;;;;493934;241;28541;-77
2020/12/16 05:51:59;;;;;;;2.53;2.33;;;8.30;99.90;;;;;;493946;241;28047;-76
2020/12/16 05:54:00;;;;;;;2.97;2.77;;;8.40;99.90;;;;;;493954;241;28482;-76
2020/12/16 05:56:01;;;;;;;3.00;2.70;;;8.40;99.90;;;;;;493884;241;29035;-77
2020/12/16 05:58:03;;;;;;;3.00;2.70;;;8.50;99.90;;;;;;493864;241;28176;-76
2020/12/16 06:00:04;;;;;;;5.60;3.73;;;8.60;99.90;;;;;;493548;241;27893;-76
2020/12/16 06:02:05;;;;;;;5.13;4.60;;;8.60;99.90;;;;;;493481;241;27975;-76
2020/12/16 06:04:06;;;;;;;6.47;4.80;;;8.50;99.90;;;;;;493471;241;28166;-76
2020/12/16 06:06:08;;;;;;;4.67;4.00;;;8.40;99.90;;;;;;493780;241;27995;-77
2020/12/16 06:08:09;;;;;;;3.73;3.43;;;8.40;99.90;;;;;;493911;241;27955;-76
2020/12/16 06:10:10;;;;;;;4.83;3.93;;;8.50;99.90;;;;;;493924;239;28018;-78
2020/12/16 06:12:11;;;;;;;6.03;4.17;;;8.40;99.90;;;;;;493895;241;27799;-76
2020/12/16 06:14:13;;;;;;;6.33;3.77;;;8.50;99.90;;;;;;493888;241;27740;-77
2020/12/16 06:16:14;;;;;;;4.97;3.90;;;8.60;99.90;;;;;;493791;241;27825;-77
2020/12/16 06:18:15;;;;;;;3.27;3.07;;;8.60;99.90;;;;;;493801;241;27798;-76
2020/12/16 06:20:17;;;;;;;4.10;3.47;;;8.70;99.90;;;;;;493743;241;27998;-76
2020/12/16 06:22:18;;;;;;;4.00;3.70;;;8.70;99.90;;;;;;493745;240;27822;-76
2020/12/16 06:24:19;;;;;;;4.80;3.60;;;8.70;99.90;;;;;;493733;241;27875;-77
2020/12/16 06:26:20;;;;;;;4.43;3.73;;;8.60;99.90;;;;;;493753;241;28724;-76
2020/12/16 06:28:21;;;;;;;5.37;4.37;;;8.60;99.90;;;;;;493843;239;28409;-76
2020/12/16 06:30:23;;;;;;;14.50;4.00;;;8.60;99.90;;;;;;493786;240;28857;-77
2020/12/16 06:32:24;;;;;;;5.07;3.90;;;8.60;99.90;;;;;;493776;237;28516;-76
2020/12/16 06:34:25;;;;;;;4.40;4.00;;;8.60;99.90;;;;;;493657;241;28461;-77
2020/12/16 06:36:26;;;;;;;5.67;3.70;;;8.60;99.90;;;;;;493751;241;27993;-76
2020/12/16 06:38:28;;;;;;;4.60;4.20;;;8.70;99.90;;;;;;493751;237;27499;-77
2020/12/16 06:40:29;;;;;;;6.53;3.70;;;8.70;99.90;;;;;;493699;241;28086;-76
2020/12/16 06:42:32;;;;;;;6.27;4.37;;;8.70;99.90;;;;;;493722;239;27974;-77
2020/12/16 06:44:31;;;;;;;5.30;4.20;;;8.70;99.90;;;;;;493634;241;27987;-77
2020/12/16 06:46:40;;;;;;;5.07;4.57;;;8.60;99.90;;;;;;493753;241;27741;-77
2020/12/16 06:48:40;;;;;;;5.00;4.50;;;8.70;99.90;;;;;;493701;241;28017;-76
2020/12/16 06:50:41;;;;;;;6.80;5.20;;;8.70;99.90;;;;;;493736;241;27980;-76
2020/12/16 06:52:42;;;;;;;8.30;5.00;;;8.70;99.90;;;;;;493753;237;28073;-76
2020/12/16 06:54:44;;;;;;;5.17;4.70;;;8.70;99.90;;;;;;493812;241;28100;-77
2020/12/16 06:56:45;;;;;;;7.53;4.70;;;8.70;99.90;;;;;;493871;241;27947;-77
2020/12/16 06:58:46;;;;;;;5.40;4.33;;;8.60;99.90;;;;;;493754;241;28085;-77
2020/12/16 07:00:47;;;;;;;4.97;4.33;;;8.60;99.90;;;;;;493491;241;28028;-76
2020/12/16 07:02:49;;;;;;;5.60;4.63;;;8.60;99.90;;;;;;493903;241;27752;-76
2020/12/16 07:04:50;;;;;;;5.23;4.50;;;8.60;99.90;;;;;;493789;239;28115;-77
2020/12/16 07:06:51;;;;;;;4.73;4.33;;;8.60;99.90;;;;;;493772;241;27720;-77
2020/12/16 07:08:52;;;;;;;5.20;4.63;;;8.50;99.90;;;;;;493936;241;28391;-79
2020/12/16 07:10:54;;;;;;;4.90;4.40;;;8.60;99.90;;;;;;493865;241;28427;-75
2020/12/16 07:12:55;;;;;;;6.20;5.60;;;8.60;99.90;;;;;;493901;241;28402;-77
2020/12/16 07:14:57;;;;;;;7.73;6.83;;;8.60;99.90;;;;;;493945;241;28409;-76
2020/12/16 07:16:57;;;;;;;7.83;7.03;;;8.60;99.90;;;;;;493865;241;28519;-76
2020/12/16 07:18:59;;;;;;;8.17;7.00;;;8.60;99.90;;;;;;493948;241;28584;-77
2020/12/16 07:21:00;;;;;;;8.20;6.80;;;8.70;99.90;;;;;;493953;241;27807;-76
2020/12/16 07:23:01;;;;;;;10.03;7.80;;;8.70;99.90;;;;;;493942;241;28052;-76
2020/12/16 07:25:02;;;;;;;8.23;7.00;;;8.70;99.90;;;;;;493896;241;27747;-77
2020/12/16 07:27:04;;;;;;;8.77;7.40;;;8.70;99.90;;;;;;494015;241;28112;-76
2020/12/16 07:29:05;;;;;;;7.57;6.77;;;8.70;99.90;;;;;;494011;241;27808;-77
2020/12/16 07:31:06;;;;;;;10.40;7.27;;;8.70;99.90;;;;;;493946;241;28175;-77
2020/12/16 07:33:07;;;;;;;7.70;6.80;;;8.80;99.90;;;;;;493848;241;28073;-77
2020/12/16 07:35:09;;;;;;;8.97;7.30;;;8.80;99.90;;;;;;493836;241;28409;-77
2020/12/16 07:37:10;;;;;;;8.07;7.23;;;8.80;99.90;;;;;;493805;241;28092;-76
2020/12/16 07:39:11;;;;;;;8.73;7.73;;;8.80;99.90;;;;;;493826;241;28069;-76
2020/12/16 07:41:12;;;;;;;8.13;7.23;;;8.80;99.90;;;;;;493766;237;27963;-77
2020/12/16 07:43:14;;;;;;;9.07;7.33;;;8.80;99.90;;;;;;493817;241;27980;-77
2020/12/16 07:45:15;;;;;;;9.10;7.33;;;8.80;99.90;;;;;;493873;239;28588;-76
2020/12/16 07:47:16;;;;;;;8.00;7.20;;;8.80;99.90;;;;;;493878;241;28084;-77
2020/12/16 07:49:18;;;;;;;7.87;7.07;;;8.80;99.90;;;;;;493907;237;28512;-77
2020/12/16 07:51:19;;;;;;;7.83;6.90;;;8.80;99.90;;;;;;493925;241;28400;-76
2020/12/16 07:53:20;;;;;;;6.70;6.00;;;8.80;99.90;;;;;;493912;241;28445;-77
2020/12/16 07:55:21;;;;;;;8.67;7.13;;;8.80;99.90;;;;;;493897;241;28487;-78
2020/12/16 07:57:22;;;;;;;6.90;6.07;;;8.90;99.90;;;;;;493861;241;27837;-77
2020/12/16 07:59:24;;;;;;;7.30;6.47;;;8.90;99.90;;;;;;493887;241;28010;-76
2020/12/16 08:01:25;;;;;;;8.67;6.60;;;8.90;99.90;;;;;;493833;239;27978;-76
2020/12/16 08:03:26;;;;;;;5.67;5.13;;;8.90;99.90;;;;;;493805;241;27702;-76
2020/12/16 08:05:27;;;;;;;7.90;6.13;;;8.90;99.90;;;;;;493831;241;27970;-77
2020/12/16 08:07:29;;;;;;;6.90;5.93;;;8.90;99.90;;;;;;493780;241;27748;-77
2020/12/16 08:09:30;;;;;;;6.70;5.83;;;8.90;99.90;;;;;;493782;241;27984;-76
2020/12/16 08:11:31;;;;;;;7.63;6.50;;;9.00;99.90;;;;;;493800;241;28401;-78
2020/12/16 08:13:32;;;;;;;7.83;7.03;;;9.00;99.90;;;;;;493837;241;27990;-76
2020/12/16 08:15:34;;;;;;;8.03;7.10;;;9.00;99.90;;;;;;493987;239;27979;-77
2020/12/16 08:17:41;;;;;;;8.20;6.80;;;9.00;99.90;;;;;;493974;241;27650;-78
2020/12/16 08:19:42;;;;;;;7.30;6.60;;;9.00;99.90;;;;;;493894;241;27968;-74
2020/12/16 08:21:43;;;;;;;7.87;6.87;;;9.10;99.90;;;;;;493814;241;27838;-77
2020/12/16 08:23:45;;;;;;;8.03;7.00;;;9.10;99.90;;;;;;493929;239;27973;-76
2020/12/16 08:25:46;;;;;;;7.97;7.17;;;9.10;99.90;;;;;;493985;241;27730;-77
2020/12/16 08:27:47;;;;;;;9.87;7.63;;;9.20;99.90;;;;;;493952;237;28058;-78
2020/12/16 08:29:48;;;;;;;8.43;7.53;;;9.20;99.90;;;;;;493961;239;27950;-76
2020/12/16 08:31:50;;;;;;;10.73;7.30;;;9.20;99.90;;;;;;493947;241;27716;-77
2020/12/16 08:33:51;;;;;;;8.30;7.27;;;9.20;99.90;;;;;;493995;241;27955;-77
2020/12/16 08:35:52;;;;;;;8.10;7.27;;;9.30;99.90;;;;;;493983;241;27787;-77
2020/12/16 08:37:54;;;;;;;8.43;7.57;;;9.30;99.90;;;;;;493998;241;28069;-78
2020/12/16 08:39:55;;;;;;;8.70;7.10;;;9.30;99.90;;;;;;494003;241;27769;-76
2020/12/16 08:41:56;;;;;;;7.80;6.83;;;9.30;99.90;;;;;;494006;241;27945;-77
2020/12/16 08:43:57;;;;;;;8.23;7.40;;;9.30;99.90;;;;;;493989;241;29283;-76
2020/12/16 08:45:58;;;;;;;7.30;6.40;;;9.30;99.90;;;;;;493975;241;28399;-77
2020/12/16 08:48:00;;;;;;;7.90;6.73;;;9.40;99.90;;;;;;493895;237;28486;-78
2020/12/16 08:50:01;;;;;;;7.30;6.20;;;9.40;99.90;;;;;;493750;241;28019;-76
2020/12/16 08:52:04;;;;;;;8.63;6.60;;;9.50;99.90;;;;;;493651;241;28651;-76
2020/12/16 08:54:03;;;;;;;13.43;8.80;;;9.50;99.90;;;;;;493518;239;29571;-76
2020/12/16 08:56:05;;;;;;;8.50;7.23;;;9.50;99.90;;;;;;493756;239;28104;-77
2020/12/16 08:58:06;;;;;;;8.97;7.20;;;9.60;99.90;;;;;;493800;241;27941;-77
2020/12/16 09:00:09;;;;;;;6.60;5.27;;;9.60;99.90;;;;;;493745;241;27962;-76
2020/12/16 09:02:09;;;;;;;5.73;5.13;;;9.60;99.90;;;;;;493651;241;28011;-76
2020/12/16 09:04:10;;;;;;;6.53;5.83;;;9.60;99.90;;;;;;493776;241;28090;-77
2020/12/16 09:06:11;;;;;;;6.63;5.93;;;9.70;99.90;;;;;;493796;241;28078;-77
2020/12/16 09:08:12;;;;;;;7.33;6.30;;;9.70;99.90;;;;;;493721;241;27894;-76
2020/12/16 09:10:13;;;;;;;6.77;6.07;;;9.70;99.90;;;;;;493747;241;28039;-76
2020/12/16 09:12:15;;;;;;;7.00;6.30;;;9.70;99.90;;;;;;493838;239;27948;-77
2020/12/16 09:14:16;;;;;;;7.17;6.47;;;9.70;99.90;;;;;;493895;241;27513;-77
2020/12/16 09:16:17;;;;;;;11.67;9.30;;;9.80;99.90;;;;;;493910;241;27913;-77
2020/12/16 09:18:18;;;;;;;13.00;9.70;;;9.90;99.90;;;;;;493918;241;28021;-77
2020/12/16 09:20:20;;;;;;;18.80;13.20;;;9.90;99.90;;;;;;493755;241;29307;-76
2020/12/16 09:22:21;;;;;;;8.47;6.90;;;9.90;99.90;;;;;;493797;241;28456;-77
2020/12/16 09:24:22;;;;;;;7.20;6.50;;;9.90;99.90;;;;;;493786;241;28382;-77
2020/12/16 09:26:23;;;;;;;7.47;5.87;;;9.90;99.90;;;;;;493789;237;28199;-77
2020/12/16 09:28:25;;;;;;;7.20;6.23;;;9.90;99.90;;;;;;493786;241;27811;-77
2020/12/16 09:30:26;;;;;;;7.20;6.50;;;10.00;99.90;;;;;;493699;241;27985;-75
2020/12/16 09:32:27;;;;;;;9.13;5.63;;;10.00;99.90;;;;;;493799;241;27809;-77
2020/12/16 09:34:28;;;;;;;6.03;5.47;;;10.00;99.90;;;;;;493834;241;28046;-77
2020/12/16 09:36:30;;;;;;;7.40;5.77;;;10.10;99.90;;;;;;493811;241;28018;-78
2020/12/16 09:38:31;;;;;;;5.40;4.90;;;10.00;99.90;;;;;;493772;241;27951;-77
2020/12/16 09:40:32;;;;;;;6.03;5.43;;;9.90;99.90;;;;;;493775;241;28448;-78
2020/12/16 09:42:33;;;;;;;6.30;5.67;;;9.90;99.90;;;;;;493844;241;27713;-76
2020/12/16 09:44:35;;;;;;;6.43;5.83;;;9.90;99.90;;;;;;493788;241;27899;-77
2020/12/16 09:46:36;;;;;;;5.83;5.03;;;10.00;99.90;;;;;;493818;241;27602;-77
2020/12/16 09:48:37;;;;;;;4.70;4.30;;;10.00;99.90;;;;;;493869;240;28445;-77
2020/12/16 09:50:39;;;;;;;6.10;5.20;;;9.90;99.90;;;;;;493887;241;28476;-77
2020/12/16 09:52:40;;;;;;;5.20;4.70;;;9.90;99.90;;;;;;493917;241;28498;-77
2020/12/16 09:54:41;;;;;;;5.33;4.83;;;9.90;99.90;;;;;;493694;241;28602;-77
2020/12/16 09:56:44;;;;;;;7.70;6.10;;;9.90;99.90;;;;;;493837;241;29207;-78
2020/12/16 09:58:43;;;;;;;7.40;5.40;;;9.90;99.90;;;;;;493785;237;27841;-77
2020/12/16 10:00:45;;;;;;;5.83;5.20;;;9.80;99.90;;;;;;493861;241;28042;-77
2020/12/16 10:02:46;;;;;;;6.47;5.47;;;9.70;99.90;;;;;;493967;241;27961;-76
2020/12/16 10:04:47;;;;;;;5.40;4.90;;;9.70;99.90;;;;;;493962;241;28075;-76
2020/12/16 10:06:48;;;;;;;6.57;5.40;;;9.70;99.90;;;;;;493945;241;27990;-77
2020/12/16 10:08:50;;;;;;;6.50;5.47;;;9.70;99.90;;;;;;494011;241;27958;-76
2020/12/16 10:10:51;;;;;;;7.03;5.13;;;9.70;99.90;;;;;;493945;241;27766;-76
2020/12/16 10:12:52;;;;;;;6.40;5.00;;;9.70;99.90;;;;;;493976;241;27497;-76
2020/12/16 10:14:53;;;;;;;5.23;4.73;;;9.70;99.90;;;;;;493955;241;27974;-76
2020/12/16 10:16:55;;;;;;;5.00;4.50;;;9.70;99.90;;;;;;493816;241;27906;-78
2020/12/16 10:18:56;;;;;;;6.70;5.10;;;9.70;99.90;;;;;;493781;241;28004;-76
2020/12/16 10:20:57;;;;;;;6.03;5.03;;;9.60;99.90;;;;;;493758;241;28083;-77
2020/12/16 10:23:00;;;;;;;7.20;5.30;;;9.60;99.90;;;;;;493825;241;27957;-76
2020/12/16 10:25:00;;;;;;;5.67;4.77;;;9.60;99.90;;;;;;493730;241;28424;-76
2020/12/16 10:27:02;;;;;;;4.30;3.90;;;9.60;99.90;;;;;;493767;241;28561;-77
2020/12/16 10:29:02;;;;;;;5.33;4.60;;;9.60;99.90;;;;;;493712;241;28500;-77
2020/12/16 10:31:03;;;;;;;5.07;4.43;;;9.70;99.90;;;;;;493723;237;28545;-77
2020/12/16 10:33:05;;;;;;;4.63;4.10;;;9.80;99.90;;;;;;493801;241;28510;-76
2020/12/16 10:35:06;;;;;;;5.47;4.70;;;9.90;99.90;;;;;;493839;241;28438;-77
2020/12/16 10:37:07;;;;;;;5.03;4.10;;;9.90;99.90;;;;;;493806;241;28053;-77